createdAt,value
2023-10-06T00:09:11.243Z,101675.22
2023-10-06T00:13:17.109Z,101676.19
2023-10-06T00:16:16.473Z,101675.63
2023-10-06T00:19:04.026Z,101675.94
2023-10-06T01:57:16.226Z,101668.38
2023-10-06T02:44:16.573Z,101653.44
2023-10-06T04:58:31.191Z,101642.56
2023-10-06T05:01:34.479Z,101638.81
2023-10-06T05:12:34.893Z,101642.28
2023-10-06T05:17:33.751Z,101649.28
2023-10-06T05:19:13.368Z,101643.00
2023-10-06T05:24:44.685Z,101649.91
2023-10-06T05:27:22.790Z,101650.72
2023-10-06T05:29:54.180Z,101643.13
2023-10-06T05:32:25.874Z,101648.13
2023-10-06T05:34:54.627Z,101658.88
2023-10-06T05:37:23.098Z,101661.66
2023-10-06T05:39:51.581Z,101665.03
2023-10-06T05:42:21.858Z,101666.00
2023-10-06T05:44:50.681Z,101675.94
2023-10-06T05:47:19.303Z,101670.16
2023-10-06T05:49:51.194Z,101667.50
2023-10-06T05:52:21.463Z,101678.38
2023-10-06T05:54:51.282Z,101683.69
2023-10-06T05:57:23.146Z,101684.53
2023-10-06T05:59:54.702Z,101674.50
2023-10-06T06:02:26.748Z,101680.50
2023-10-06T06:04:59.296Z,101677.03
2023-10-06T06:07:29.494Z,101676.44
2023-10-06T06:09:59.792Z,101677.84
2023-10-06T06:12:29.197Z,101673.06
2023-10-06T06:15:01.299Z,101674.44
2023-10-06T06:17:36.749Z,101673.47
2023-10-06T06:24:21.925Z,101670.13
2023-10-06T06:26:57.054Z,101674.44
2023-10-06T06:29:31.298Z,101672.81
2023-10-06T06:41:59.536Z,101680.63
2023-10-06T06:44:55.120Z,101684.72
2023-10-06T06:50:57.715Z,101694.31
2023-10-06T06:53:32.098Z,101693.03
2023-10-06T06:56:07.424Z,101697.81
2023-10-06T06:59:58.317Z,101703.78
2023-10-06T07:02:30.578Z,101693.97
2023-10-06T07:04:59.001Z,101690.91
2023-10-06T07:07:30.190Z,101681.75
2023-10-06T07:10:08.023Z,101680.06
2023-10-06T07:12:36.399Z,101683.38
2023-10-06T07:15:04.840Z,101674.75
2023-10-06T07:17:34.796Z,101674.59
2023-10-06T07:20:30.708Z,101682.16
2023-10-06T07:23:03.978Z,101686.19
2023-10-06T07:26:04.338Z,101683.78
2023-10-06T07:28:35.470Z,101682.34
2023-10-06T07:31:05.766Z,101688.19
2023-10-06T07:33:35.827Z,101688.09
2023-10-06T07:36:15.168Z,101695.88
2023-10-06T07:38:53.019Z,101696.31
2023-10-06T07:41:24.209Z,101693.94
2023-10-06T07:43:53.789Z,101686.84
2023-10-06T07:46:22.682Z,101694.34
2023-10-06T07:48:52.814Z,101709.69
2023-10-06T07:51:21.606Z,101698.38
2023-10-06T07:53:53.252Z,101701.50
2023-10-06T07:56:21.366Z,101693.53
2023-10-06T07:58:54.329Z,101696.47
2023-10-06T08:01:25.717Z,101690.19
2023-10-06T08:03:55.679Z,101694.75
2023-10-06T08:06:25.250Z,101694.19
2023-10-06T08:09:06.830Z,101691.66
2023-10-06T08:11:40.659Z,101691.53
2023-10-06T08:14:08.693Z,101696.88
2023-10-06T08:16:38.600Z,101697.00
2023-10-06T08:19:07.956Z,101691.94
2023-10-06T08:21:35.957Z,101696.44
2023-10-06T08:24:03.764Z,101700.75
2023-10-06T08:26:31.512Z,101702.84
2023-10-06T08:29:00.668Z,101701.66
2023-10-06T08:31:29.960Z,101696.91
2023-10-06T08:34:00.680Z,101692.66
2023-10-06T08:36:31.123Z,101698.66
2023-10-06T08:38:59.700Z,101704.28
2023-10-06T08:41:35.255Z,101692.03
2023-10-06T08:44:05.074Z,101695.19
2023-10-06T08:46:36.101Z,101694.13
2023-10-06T08:49:04.202Z,101682.66
2023-10-06T08:51:33.978Z,101694.56
2023-10-06T08:54:04.326Z,101685.59
2023-10-06T08:56:35.132Z,101690.34
2023-10-06T08:59:02.931Z,101689.22
2023-10-06T09:01:31.346Z,101683.69
2023-10-06T09:04:04.648Z,101694.28
2023-10-06T09:06:33.958Z,101682.69
2023-10-06T09:09:02.600Z,101685.06
2023-10-06T09:11:39.990Z,101673.72
2023-10-06T09:14:08.585Z,101675.34
2023-10-06T09:16:50.149Z,101673.63
2023-10-06T09:19:18.956Z,101666.03
2023-10-06T09:22:05.736Z,101676.66
2023-10-06T09:24:33.770Z,101673.69
2023-10-06T09:27:06.492Z,101661.97
2023-10-06T09:29:35.814Z,101655.94
2023-10-06T09:32:06.087Z,101649.84
2023-10-06T09:34:33.925Z,101650.47
2023-10-06T09:37:19.961Z,101658.47
2023-10-06T09:39:57.645Z,101645.09
2023-10-06T09:42:28.808Z,101639.69
2023-10-06T09:45:13.105Z,101636.09
2023-10-06T09:47:49.813Z,101644.19
2023-10-06T09:50:19.826Z,101639.91
2023-10-06T09:52:49.794Z,101649.13
2023-10-06T09:55:21.734Z,101638.59
2023-10-06T09:57:51.285Z,101638.97
2023-10-06T10:00:20.739Z,101641.50
2023-10-06T10:02:50.273Z,101641.59
2023-10-06T10:05:32.021Z,101630.28
2023-10-06T10:08:03.709Z,101624.25
2023-10-06T10:10:33.708Z,101617.38
2023-10-06T10:13:21.241Z,101616.53
2023-10-06T10:16:07.537Z,101623.75
2023-10-06T10:18:39.469Z,101620.59
2023-10-06T10:21:10.350Z,101611.34
2023-10-06T10:23:41.532Z,101623.81
2023-10-06T10:26:17.384Z,101622.03
2023-10-06T10:28:45.609Z,101621.94
2023-10-06T10:31:18.730Z,101617.47
2023-10-06T10:33:58.140Z,101614.94
2023-10-06T10:36:40.342Z,101609.72
2023-10-06T10:39:18.066Z,101614.41
2023-10-06T10:41:48.981Z,101610.47
2023-10-06T10:44:27.315Z,101602.56
2023-10-06T10:47:10.956Z,101597.09
2023-10-06T10:53:22.636Z,101605.56
2023-10-06T10:55:54.132Z,101604.13
2023-10-06T11:02:38.074Z,101595.75
2023-10-06T11:05:41.480Z,101599.13
2023-10-06T11:08:25.060Z,101572.31
2023-10-06T11:11:08.201Z,101569.63
2023-10-06T11:14:42.187Z,101580.75
2023-10-06T11:17:29.263Z,101567.31
2023-10-06T11:36:34.062Z,101549.38
2023-10-06T12:37:11.045Z,101460.78
2023-10-06T13:19:16.578Z,101436.13
2023-10-06T13:21:50.490Z,101426.66
2023-10-06T13:31:53.532Z,101423.84
2023-10-06T14:52:32.635Z,101379.31
2023-10-06T14:58:36.128Z,101379.06
2023-10-06T15:01:44.304Z,101368.28
2023-10-06T15:04:29.050Z,101361.66
2023-10-06T15:07:26.738Z,101363.41
2023-10-06T15:14:58.058Z,101371.63
2023-10-06T16:13:36.199Z,101351.84
2023-10-06T16:28:07.629Z,101358.13
2023-10-06T16:49:39.000Z,101370.28
2023-10-06T18:12:25.779Z,101389.94
2023-10-06T18:15:43.422Z,101387.59
2023-10-06T18:18:15.388Z,101392.94
2023-10-06T18:24:14.866Z,101386.44
2023-10-06T18:26:43.038Z,101393.78
2023-10-06T18:29:12.538Z,101396.63
2023-10-06T18:31:40.612Z,101395.47
2023-10-06T18:34:10.741Z,101401.28
2023-10-06T18:36:38.601Z,101399.94
2023-10-06T18:39:28.693Z,101393.91
2023-10-06T18:41:56.886Z,101398.59
2023-10-06T18:44:27.591Z,101389.91
2023-10-06T18:46:56.281Z,101395.25
2023-10-06T18:49:24.225Z,101397.94
2023-10-06T18:52:03.804Z,101394.59
2023-10-06T18:54:53.898Z,101391.06
2023-10-06T18:57:26.050Z,101403.75
2023-10-06T19:03:31.750Z,101401.06
2023-10-06T19:06:05.869Z,101409.25
2023-10-06T19:08:41.048Z,101404.91
2023-10-06T19:14:12.253Z,101409.59
2023-10-06T19:16:44.849Z,101414.09
2023-10-06T19:19:44.438Z,101412.25
2023-10-06T19:22:45.739Z,101415.19
2023-10-06T19:25:22.038Z,101414.31
2023-10-06T19:35:19.745Z,101421.41
2023-10-06T19:38:08.990Z,101422.88
2023-10-06T19:45:40.808Z,101417.53
2023-10-06T20:03:49.813Z,101403.66
2023-10-06T20:07:12.063Z,101405.84
2023-10-06T20:23:58.787Z,101385.66
2023-10-06T20:26:49.791Z,101395.53
2023-10-06T20:29:47.132Z,101397.69
2023-10-06T20:46:18.254Z,101410.94
2023-10-06T20:48:47.813Z,101409.22
2023-10-06T20:51:17.528Z,101408.94
2023-10-06T20:53:45.682Z,101410.28
2023-10-06T20:56:15.041Z,101413.66
2023-10-06T20:58:42.952Z,101412.50
2023-10-06T21:01:11.166Z,101405.78
2023-10-06T21:03:40.604Z,101401.78
2023-10-06T21:06:13.708Z,101412.63
2023-10-06T21:08:41.795Z,101414.28
2023-10-06T21:11:10.006Z,101420.00
2023-10-06T21:13:38.093Z,101413.50
2023-10-06T21:16:06.787Z,101409.16
2023-10-06T21:18:38.402Z,101415.00
2023-10-06T21:21:07.896Z,101423.22
2023-10-06T21:23:36.128Z,101426.34
2023-10-06T21:26:04.242Z,101420.75
2023-10-06T21:28:32.088Z,101431.41
2023-10-06T21:34:58.063Z,101423.09
2023-10-06T21:44:01.819Z,101437.16
2023-10-06T21:47:19.106Z,101419.78
2023-10-06T21:50:41.049Z,101427.66
2023-10-06T22:24:55.282Z,101432.06
2023-10-06T22:27:33.642Z,101432.34
2023-10-06T22:30:12.861Z,101439.22
2023-10-06T22:32:46.077Z,101443.31
2023-10-06T23:03:04.943Z,101416.69
2023-10-06T23:09:05.133Z,101417.31
2023-10-06T23:19:43.226Z,101390.25
2023-10-06T23:25:44.586Z,101387.06
2023-10-06T23:28:46.814Z,101403.66
2023-10-06T23:41:30.950Z,101383.25
2023-10-06T23:48:34.378Z,101385.75
